createdAt,value
2022-11-11T00:03:00.261Z,3.82
2022-11-11T00:06:04.230Z,3.91
2022-11-11T00:09:06.554Z,3.94
2022-11-11T00:12:09.162Z,4.00
2022-11-11T00:15:11.489Z,4.04
2022-11-11T00:18:32.328Z,4.02
2022-11-11T00:21:37.150Z,4.04
2022-11-11T00:24:57.912Z,4.05
2022-11-11T00:28:00.092Z,4.03
2022-11-11T00:31:09.974Z,4.10
2022-11-11T00:34:12.152Z,4.12
2022-11-11T00:37:14.349Z,4.16
2022-11-11T00:40:17.140Z,4.15
2022-11-11T00:43:19.219Z,4.12
2022-11-11T00:46:40.260Z,4.10
2022-11-11T00:50:00.858Z,4.10
2022-11-11T00:53:05.322Z,4.03
2022-11-11T00:56:07.579Z,4.08
2022-11-11T00:59:09.809Z,3.96
2022-11-11T01:02:12.148Z,3.99
2022-11-11T01:05:14.488Z,3.85
2022-11-11T01:08:16.618Z,3.77
2022-11-11T01:11:21.832Z,3.69
2022-11-11T01:14:23.985Z,3.56
2022-11-11T01:17:26.165Z,3.54
2022-11-11T01:20:28.408Z,3.49
2022-11-11T01:23:32.166Z,3.54
2022-11-11T01:26:34.384Z,3.44
2022-11-11T01:29:36.499Z,3.46
2022-11-11T01:32:38.620Z,3.47
2022-11-11T01:35:42.450Z,3.44
2022-11-11T01:38:48.509Z,3.35
2022-11-11T01:41:50.681Z,3.27
2022-11-11T01:44:52.787Z,3.31
2022-11-11T01:48:33.800Z,3.25
2022-11-11T01:51:59.278Z,3.23
2022-11-11T01:55:13.549Z,3.18
2022-11-11T01:58:18.335Z,3.21
2022-11-11T02:01:20.548Z,3.24
2022-11-11T02:04:41.389Z,3.28
2022-11-11T02:07:43.755Z,3.31
2022-11-11T02:10:47.240Z,3.35
2022-11-11T02:14:07.765Z,3.40
2022-11-11T02:17:14.091Z,3.39
2022-11-11T02:20:21.243Z,3.36
2022-11-11T02:23:42.417Z,3.36
2022-11-11T02:26:45.415Z,3.35
2022-11-11T02:29:50.917Z,3.36
2022-11-11T02:32:54.599Z,3.36
2022-11-11T02:35:59.512Z,3.32
2022-11-11T02:39:04.989Z,3.28
2022-11-11T02:42:10.489Z,3.21
2022-11-11T02:45:12.972Z,3.19
2022-11-11T02:48:15.101Z,3.13
2022-11-11T02:51:17.564Z,3.07
2022-11-11T02:54:19.669Z,3.03
2022-11-11T02:57:22.699Z,3.06
2022-11-11T03:00:25.714Z,3.06
2022-11-11T03:03:28.261Z,3.03
2022-11-11T03:06:30.896Z,3.02
2022-11-11T03:09:33.077Z,3.00
2022-11-11T03:12:35.217Z,3.06
2022-11-11T03:15:37.604Z,3.02
2022-11-11T03:23:02.049Z,3.01
2022-11-11T03:26:04.093Z,2.98
2022-11-11T03:29:06.527Z,3.01
2022-11-11T03:32:09.748Z,2.98
2022-11-11T03:35:11.764Z,2.92
2022-11-11T03:38:23.551Z,2.89
2022-11-11T03:41:25.594Z,2.88
2022-11-11T03:44:28.665Z,2.87
2022-11-11T03:47:30.704Z,2.85
2022-11-11T03:50:34.765Z,2.82
2022-11-11T03:53:36.747Z,2.78
2022-11-11T03:56:38.902Z,2.75
2022-11-11T03:59:41.137Z,2.77
2022-11-11T04:03:01.634Z,2.74
2022-11-11T04:06:23.170Z,2.72
2022-11-11T04:09:43.841Z,2.65
2022-11-11T04:13:04.535Z,2.56
2022-11-11T04:16:06.765Z,2.59
2022-11-11T04:19:27.730Z,2.54
2022-11-11T04:22:30.009Z,2.56
2022-11-11T04:25:50.268Z,2.52
2022-11-11T04:29:21.661Z,2.51
2022-11-11T04:32:35.832Z,2.56
2022-11-11T04:35:37.845Z,2.55
2022-11-11T04:38:58.125Z,2.56
2022-11-11T04:42:08.853Z,2.56
2022-11-11T04:45:28.376Z,2.50
2022-11-11T04:48:30.332Z,2.45
2022-11-11T04:51:52.281Z,2.46
2022-11-11T04:55:21.476Z,2.44
2022-11-11T04:58:26.043Z,2.46
2022-11-11T05:01:46.542Z,2.47
2022-11-11T05:04:48.508Z,2.44
2022-11-11T05:08:09.674Z,2.45
2022-11-11T05:11:11.792Z,2.42
2022-11-11T05:14:32.479Z,2.45
2022-11-11T05:17:53.211Z,2.44
2022-11-11T05:21:13.912Z,2.36
2022-11-11T05:24:34.836Z,2.35
2022-11-11T05:27:37.044Z,2.26
2022-11-11T05:30:41.780Z,2.26
2022-11-11T05:33:43.772Z,2.28
2022-11-11T05:36:45.790Z,2.31
2022-11-11T05:39:48.090Z,2.33
2022-11-11T05:42:54.251Z,2.29
2022-11-11T05:45:59.653Z,2.22
2022-11-11T05:49:16.629Z,2.19
2022-11-11T05:52:20.411Z,2.15
2022-11-11T05:55:22.426Z,2.15
2022-11-11T05:58:24.498Z,2.15
2022-11-11T06:01:26.778Z,2.24
2022-11-11T06:04:29.180Z,2.25
2022-11-11T06:07:31.741Z,2.28
2022-11-11T06:10:34.066Z,2.26
2022-11-11T06:13:36.246Z,2.23
2022-11-11T06:16:38.334Z,2.18
2022-11-11T06:19:40.297Z,2.12
2022-11-11T06:22:57.442Z,2.06
2022-11-11T06:26:15.339Z,2.01
2022-11-11T06:29:17.341Z,1.95
2022-11-11T06:32:19.290Z,1.96
2022-11-11T06:35:21.420Z,2.04
2022-11-11T06:38:23.487Z,2.10
2022-11-11T06:41:30.974Z,2.06
2022-11-11T06:44:32.945Z,2.10
2022-11-11T06:47:44.576Z,2.22
2022-11-11T06:55:02.241Z,2.46
2022-11-11T06:58:12.435Z,2.51
2022-11-11T07:01:14.994Z,2.65
2022-11-11T07:04:17.272Z,2.74
2022-11-11T07:07:19.413Z,2.85
2022-11-11T07:10:21.977Z,3.00
2022-11-11T07:13:24.353Z,3.01
2022-11-11T07:16:28.574Z,3.10
2022-11-11T07:19:31.198Z,3.21
2022-11-11T07:22:38.205Z,3.39
2022-11-11T07:25:40.410Z,3.45
2022-11-11T07:28:42.469Z,3.62
2022-11-11T07:31:44.915Z,3.96
2022-11-11T07:34:47.100Z,4.06
2022-11-11T07:37:49.463Z,4.22
2022-11-11T07:40:51.834Z,4.37
2022-11-11T07:43:53.825Z,4.36
2022-11-11T07:46:55.914Z,4.48
2022-11-11T07:50:01.769Z,4.58
2022-11-11T07:53:06.724Z,4.72
2022-11-11T07:56:08.955Z,5.02
2022-11-11T07:59:11.037Z,5.33
2022-11-11T08:02:13.970Z,5.47
2022-11-11T08:05:16.747Z,5.68
2022-11-11T08:08:20.957Z,5.84
2022-11-11T08:11:43.432Z,5.96
2022-11-11T08:14:45.503Z,6.08
2022-11-11T08:17:47.584Z,6.19
2022-11-11T08:20:54.672Z,6.39
2022-11-11T08:25:01.591Z,6.50
2022-11-11T08:27:31.342Z,6.94
2022-11-11T08:30:33.671Z,7.07
2022-11-11T08:33:35.861Z,7.04
2022-11-11T08:36:38.208Z,7.24
2022-11-11T08:39:40.218Z,7.41
2022-11-11T08:42:42.346Z,7.45
2022-11-11T08:45:44.775Z,7.68
2022-11-11T08:48:47.920Z,8.04
2022-11-11T08:51:50.104Z,8.21
2022-11-11T08:54:52.674Z,8.57
2022-11-11T08:57:59.740Z,8.36
2022-11-11T09:01:04.481Z,8.69
2022-11-11T09:04:37.740Z,8.88
2022-11-11T09:07:28.989Z,8.95
2022-11-11T09:10:31.363Z,8.75
2022-11-11T09:13:33.611Z,8.72
2022-11-11T09:16:35.735Z,8.97
2022-11-11T09:19:37.976Z,9.11
2022-11-11T09:22:44.317Z,9.36
2022-11-11T09:25:46.633Z,9.66
2022-11-11T09:28:48.942Z,9.98
2022-11-11T09:31:51.277Z,9.91
2022-11-11T09:34:55.564Z,9.83
2022-11-11T09:38:00.003Z,10.13
2022-11-11T09:41:35.830Z,10.26
2022-11-11T09:45:05.733Z,10.35
2022-11-11T09:48:39.047Z,10.64
2022-11-11T09:52:01.053Z,10.65
2022-11-11T09:55:30.681Z,11.11
2022-11-11T09:58:38.687Z,11.51
2022-11-11T10:01:45.335Z,12.01
2022-11-11T10:05:21.635Z,13.14
2022-11-11T10:08:23.995Z,13.51
2022-11-11T10:11:39.938Z,14.00
2022-11-11T10:14:49.568Z,14.56
2022-11-11T10:17:51.654Z,15.73
2022-11-11T10:21:05.822Z,15.81
2022-11-11T10:24:17.361Z,16.08
2022-11-11T10:27:22.294Z,16.37
2022-11-11T10:30:31.660Z,15.64
2022-11-11T10:33:46.497Z,15.67
2022-11-11T10:36:53.773Z,15.73
2022-11-11T10:40:12.760Z,16.15
2022-11-11T10:43:23.615Z,16.12
2022-11-11T10:46:40.442Z,15.39
2022-11-11T10:49:53.686Z,15.47
2022-11-11T10:53:54.542Z,15.51
2022-11-11T10:57:05.846Z,15.29
2022-11-11T11:00:11.825Z,15.00
2022-11-11T11:03:24.351Z,15.35
2022-11-11T11:06:32.106Z,15.58
2022-11-11T11:09:44.232Z,16.01
2022-11-11T11:13:08.002Z,16.08
2022-11-11T11:16:18.084Z,16.96
2022-11-11T11:19:25.837Z,16.41
2022-11-11T11:22:53.044Z,16.61
2022-11-11T11:25:57.624Z,15.97
2022-11-11T11:29:02.241Z,15.87
2022-11-11T11:32:19.670Z,15.49
2022-11-11T11:35:44.272Z,15.07
2022-11-11T11:38:51.068Z,14.89
2022-11-11T11:41:54.399Z,14.64
2022-11-11T11:44:56.828Z,14.59
2022-11-11T11:48:30.893Z,14.44
2022-11-11T11:55:18.378Z,14.50
2022-11-11T11:58:43.877Z,14.45
2022-11-11T12:01:55.935Z,14.22
2022-11-11T12:05:10.790Z,13.89
2022-11-11T12:08:19.111Z,13.70
2022-11-11T12:11:40.172Z,13.62
2022-11-11T12:14:52.708Z,13.82
2022-11-11T12:18:16.891Z,13.89
2022-11-11T12:21:24.283Z,13.93
2022-11-11T12:24:51.368Z,13.74
2022-11-11T12:28:04.783Z,13.69
2022-11-11T12:31:32.743Z,13.79
2022-11-11T12:34:53.755Z,13.62
2022-11-11T12:38:26.803Z,13.61
2022-11-11T12:42:07.918Z,13.56
2022-11-11T12:45:22.128Z,13.59
2022-11-11T12:48:43.107Z,13.64
2022-11-11T12:52:16.230Z,13.69
2022-11-11T12:55:36.457Z,13.62
2022-11-11T12:58:44.289Z,13.62
2022-11-11T13:02:16.547Z,13.73
2022-11-11T13:05:22.565Z,13.79
2022-11-11T13:09:06.160Z,13.80
2022-11-11T13:12:21.450Z,13.87
2022-11-11T13:15:25.799Z,13.88
2022-11-11T13:18:51.604Z,13.80
2022-11-11T13:21:59.429Z,13.73
2022-11-11T13:25:07.785Z,13.70
2022-11-11T13:28:17.795Z,13.47
2022-11-11T13:31:34.452Z,13.44
2022-11-11T13:34:37.448Z,13.37
2022-11-11T13:37:43.641Z,13.24
2022-11-11T13:40:46.865Z,13.27
2022-11-11T13:43:52.211Z,13.17
2022-11-11T13:47:03.457Z,13.09
2022-11-11T13:50:27.769Z,13.04
2022-11-11T13:53:34.283Z,12.96
2022-11-11T13:56:41.837Z,12.97
2022-11-11T14:00:10.063Z,12.96
2022-11-11T14:03:18.385Z,13.03
2022-11-11T14:06:20.477Z,13.15
2022-11-11T14:09:54.401Z,13.26
2022-11-11T14:13:22.015Z,13.39
2022-11-11T14:16:34.498Z,13.48
2022-11-11T14:19:36.743Z,13.59
2022-11-11T14:22:38.944Z,13.63
2022-11-11T14:25:41.173Z,13.60
2022-11-11T14:28:49.294Z,13.48
2022-11-11T14:32:12.839Z,13.37
2022-11-11T14:35:54.024Z,13.25
2022-11-11T14:39:24.065Z,13.10
2022-11-11T14:42:38.013Z,12.92
2022-11-11T14:45:49.466Z,12.78
2022-11-11T14:49:00.250Z,12.67
2022-11-11T14:52:03.722Z,12.59
2022-11-11T14:55:20.815Z,12.51
2022-11-11T14:58:27.247Z,12.43
2022-11-11T15:01:31.391Z,12.37
2022-11-11T15:04:38.784Z,12.24
2022-11-11T15:07:40.866Z,12.16
2022-11-11T15:11:03.681Z,12.11
2022-11-11T15:14:37.973Z,11.95
2022-11-11T15:18:25.612Z,11.76
2022-11-11T15:21:27.709Z,11.56
2022-11-11T15:25:15.176Z,11.43
2022-11-11T15:28:35.570Z,11.26
2022-11-11T15:32:28.429Z,11.06
2022-11-11T15:35:42.104Z,10.92
2022-11-11T15:38:44.837Z,10.82
2022-11-11T15:41:50.505Z,10.73
2022-11-11T15:44:52.850Z,10.60
2022-11-11T15:47:55.093Z,10.57
2022-11-11T15:50:57.410Z,10.51
2022-11-11T15:54:15.808Z,10.46
2022-11-11T15:57:35.234Z,10.48
2022-11-11T16:00:38.272Z,10.37
2022-11-11T16:03:42.474Z,10.22
2022-11-11T16:06:45.347Z,10.12
2022-11-11T16:09:47.895Z,10.01
2022-11-11T16:13:18.585Z,9.93
2022-11-11T16:16:31.185Z,9.82
2022-11-11T16:19:37.442Z,9.69
2022-11-11T16:22:40.755Z,9.71
2022-11-11T16:25:43.301Z,9.67
2022-11-11T16:28:48.595Z,9.58
2022-11-11T16:31:50.913Z,9.44
2022-11-11T16:34:54.459Z,9.34
2022-11-11T16:37:56.973Z,9.24
2022-11-11T16:40:59.665Z,9.13
2022-11-11T16:44:01.921Z,9.03
2022-11-11T16:47:27.799Z,8.94
2022-11-11T16:50:30.408Z,8.87
2022-11-11T16:53:40.883Z,8.81
2022-11-11T16:56:47.163Z,8.75
2022-11-11T16:59:55.395Z,8.72
2022-11-11T17:03:22.957Z,8.69
2022-11-11T17:06:52.262Z,8.65
2022-11-11T17:09:55.887Z,8.59
2022-11-11T17:12:58.003Z,8.70
2022-11-11T17:16:08.102Z,8.80
2022-11-11T17:19:10.556Z,8.83
2022-11-11T17:22:12.920Z,8.80
2022-11-11T17:25:15.379Z,8.79
2022-11-11T17:28:18.187Z,8.76
2022-11-11T17:31:20.503Z,8.69
2022-11-11T17:34:22.930Z,8.59
2022-11-11T17:37:25.102Z,8.50
2022-11-11T17:40:27.905Z,8.42
2022-11-11T17:43:31.660Z,8.30
2022-11-11T17:46:34.438Z,8.20
2022-11-11T17:49:55.726Z,8.15
2022-11-11T17:52:58.635Z,8.04
2022-11-11T17:56:02.101Z,7.97
2022-11-11T17:59:04.686Z,7.92
2022-11-11T18:02:07.644Z,7.90
2022-11-11T18:05:10.530Z,7.82
2022-11-11T18:08:12.891Z,7.84
2022-11-11T18:11:15.531Z,7.76
2022-11-11T18:14:18.006Z,7.72
2022-11-11T18:17:20.246Z,7.51
2022-11-11T18:20:22.783Z,7.58
2022-11-11T18:23:25.522Z,7.46
2022-11-11T18:26:28.051Z,7.34
2022-11-11T18:29:31.331Z,7.25
2022-11-11T18:32:34.013Z,7.25
2022-11-11T18:35:36.708Z,7.26
2022-11-11T18:38:39.652Z,7.22
2022-11-11T18:41:42.349Z,7.21
2022-11-11T18:44:44.771Z,7.23
2022-11-11T18:47:50.815Z,7.19
2022-11-11T18:50:55.271Z,7.15
2022-11-11T18:53:58.540Z,7.12
2022-11-11T18:57:03.466Z,7.10
2022-11-11T19:00:06.519Z,7.05
2022-11-11T19:03:10.232Z,7.01
2022-11-11T19:06:12.858Z,6.98
2022-11-11T19:09:15.708Z,6.94
2022-11-11T19:12:18.482Z,6.94
2022-11-11T19:15:20.963Z,6.92
2022-11-11T19:18:24.082Z,6.96
2022-11-11T19:21:29.798Z,6.97
2022-11-11T19:24:34.027Z,7.01
2022-11-11T19:27:36.337Z,6.99
2022-11-11T19:30:38.897Z,6.97
2022-11-11T19:33:42.458Z,6.97
2022-11-11T19:36:44.864Z,6.99
2022-11-11T19:39:47.451Z,6.98
2022-11-11T19:42:50.662Z,6.98
2022-11-11T19:45:53.200Z,7.02
2022-11-11T19:48:58.548Z,7.03
2022-11-11T19:52:01.262Z,7.06
2022-11-11T19:55:04.017Z,7.08
2022-11-11T19:58:06.711Z,7.08
2022-11-11T20:01:11.654Z,7.07
2022-11-11T20:04:14.161Z,7.08
2022-11-11T20:07:17.252Z,7.07
2022-11-11T20:10:20.508Z,7.06
2022-11-11T20:13:23.193Z,7.05
2022-11-11T20:16:26.305Z,7.04
2022-11-11T20:19:28.562Z,7.06
2022-11-11T20:22:32.090Z,7.04
2022-11-11T20:25:38.540Z,7.03
2022-11-11T20:28:42.028Z,7.03
2022-11-11T20:31:44.394Z,7.02
2022-11-11T20:34:46.669Z,6.97
2022-11-11T20:37:49.184Z,6.95
2022-11-11T20:41:04.899Z,6.91
2022-11-11T20:44:07.832Z,6.90
2022-11-11T20:47:10.224Z,6.90
2022-11-11T20:50:12.947Z,6.86
2022-11-11T20:53:15.699Z,6.80
2022-11-11T20:56:22.413Z,6.77
2022-11-11T20:59:27.074Z,6.72
2022-11-11T21:02:29.689Z,6.70
2022-11-11T21:05:31.990Z,6.68
2022-11-11T21:08:37.092Z,6.66
2022-11-11T21:11:40.251Z,6.63
2022-11-11T21:14:42.519Z,6.58
2022-11-11T21:17:44.819Z,6.52
2022-11-11T21:20:47.608Z,6.47
2022-11-11T21:23:54.785Z,6.39
2022-11-11T21:26:58.306Z,6.31
2022-11-11T21:30:00.584Z,6.23
2022-11-11T21:33:07.809Z,6.19
2022-11-11T21:36:13.363Z,6.13
2022-11-11T21:39:15.851Z,6.10
2022-11-11T21:42:18.507Z,6.05
2022-11-11T21:45:20.772Z,5.96
2022-11-11T21:48:27.030Z,5.89
2022-11-11T21:51:31.777Z,5.78
2022-11-11T21:54:33.995Z,5.69
2022-11-11T21:57:36.524Z,5.58
2022-11-11T22:00:38.768Z,5.48
2022-11-11T22:03:42.784Z,5.45
2022-11-11T22:06:45.083Z,5.37
2022-11-11T22:09:47.274Z,5.35
2022-11-11T22:12:49.427Z,5.33
2022-11-11T22:15:59.169Z,5.33
2022-11-11T22:19:07.018Z,5.31
2022-11-11T22:22:09.359Z,5.28
2022-11-11T22:25:11.475Z,5.25
2022-11-11T22:28:13.646Z,5.18
2022-11-11T22:31:23.978Z,5.17
2022-11-11T22:34:26.188Z,5.15
2022-11-11T22:37:28.446Z,5.15
2022-11-11T22:40:30.741Z,5.11
2022-11-11T22:43:58.553Z,5.02
2022-11-11T22:47:00.084Z,5.05
2022-11-11T22:50:02.330Z,5.04
2022-11-11T22:53:04.509Z,5.02
2022-11-11T22:56:09.329Z,5.04
2022-11-11T22:59:11.581Z,4.97
2022-11-11T23:02:14.074Z,4.96
2022-11-11T23:05:16.754Z,4.92
2022-11-11T23:08:18.998Z,4.87
2022-11-11T23:11:23.921Z,4.80
2022-11-11T23:14:26.071Z,4.79
2022-11-11T23:17:28.213Z,4.78
2022-11-11T23:20:30.383Z,4.74
2022-11-11T23:23:33.446Z,4.72
2022-11-11T23:26:35.688Z,4.69
2022-11-11T23:29:37.930Z,4.64
2022-11-11T23:32:40.245Z,4.57
2022-11-11T23:35:42.505Z,4.57
2022-11-11T23:38:44.918Z,4.54
2022-11-11T23:41:47.543Z,4.53
2022-11-11T23:44:49.727Z,4.54
2022-11-11T23:47:51.961Z,4.54
2022-11-11T23:50:54.692Z,4.51
2022-11-11T23:53:56.999Z,4.47
2022-11-11T23:56:59.240Z,4.50
